createdAt,value
2019-04-06T00:04:37.896Z,93.24
2019-04-06T00:07:04.143Z,93.29
2019-04-06T00:09:50.155Z,93.05
2019-04-06T00:12:16.435Z,93.02
2019-04-06T00:14:42.692Z,94.50
2019-04-06T00:17:09.012Z,95.08
2019-04-06T00:19:35.284Z,95.83
2019-04-06T00:22:01.519Z,96.19
2019-04-06T00:24:27.779Z,96.37
2019-04-06T00:26:54.016Z,96.45
2019-04-06T00:29:20.269Z,95.67
2019-04-06T00:32:06.373Z,95.35
2019-04-06T00:37:06.758Z,96.12
2019-04-06T00:39:33.009Z,95.34
2019-04-06T00:41:59.242Z,94.71
2019-04-06T00:44:25.508Z,94.29
2019-04-06T00:46:51.740Z,93.95
2019-04-06T00:49:17.995Z,94.24
2019-04-06T00:51:44.239Z,94.60
2019-04-06T00:54:10.483Z,94.34
2019-04-06T00:56:36.711Z,94.11
2019-04-06T00:59:02.963Z,94.18
2019-04-06T01:01:29.350Z,94.25
2019-04-06T01:03:55.644Z,94.16
2019-04-06T01:06:21.896Z,94.46
2019-04-06T01:08:48.153Z,94.81
2019-04-06T01:11:22.096Z,94.86
2019-04-06T01:13:48.332Z,96.16
2019-04-06T01:16:14.580Z,96.87
2019-04-06T01:18:40.872Z,96.75
2019-04-06T01:21:07.267Z,96.43
2019-04-06T01:23:33.526Z,96.11
2019-04-06T01:26:07.175Z,97.14
2019-04-06T01:28:27.935Z,97.62
2019-04-06T01:30:54.211Z,98.27
2019-04-06T01:33:20.445Z,98.84
2019-04-06T01:35:46.698Z,98.92
2019-04-06T01:38:12.936Z,99.05
2019-04-06T01:40:39.201Z,99.13
2019-04-06T01:43:05.435Z,99.05
2019-04-06T01:45:31.746Z,99.05
2019-04-06T01:47:58.032Z,98.97
2019-04-06T01:50:24.290Z,99.01
2019-04-06T01:52:50.545Z,99.05
2019-04-06T01:55:16.798Z,98.86
2019-04-06T01:57:43.044Z,98.76
2019-04-06T02:03:02.769Z,98.63
2019-04-06T02:05:29.150Z,98.65
2019-04-06T02:07:55.367Z,98.57
2019-04-06T02:10:21.606Z,98.21
2019-04-06T02:12:47.862Z,98.27
2019-04-06T02:15:14.197Z,97.82
2019-04-06T02:17:40.462Z,97.94
2019-04-06T02:20:07.016Z,98.03
2019-04-06T02:25:27.094Z,98.56
2019-04-06T02:27:53.350Z,98.35
2019-04-06T02:33:27.136Z,98.66
2019-04-06T02:39:00.805Z,98.56
2019-04-06T02:41:46.795Z,98.53
2019-04-06T02:44:54.647Z,98.78
2019-04-06T02:47:20.872Z,99.01
2019-04-06T02:49:47.121Z,99.24
2019-04-06T02:52:13.359Z,99.40
2019-04-06T02:54:39.859Z,99.47
2019-04-06T02:57:06.146Z,99.39
2019-04-06T02:59:32.395Z,99.15
2019-04-06T03:01:58.630Z,98.80
2019-04-06T03:04:24.909Z,98.62
2019-04-06T03:06:51.163Z,98.44
2019-04-06T03:09:17.395Z,98.97
2019-04-06T03:11:43.655Z,99.24
2019-04-06T03:14:09.925Z,99.46
2019-04-06T03:16:36.280Z,99.67
2019-04-06T03:19:02.687Z,99.85
2019-04-06T03:21:28.935Z,100.00
2019-04-06T03:23:55.172Z,100.00
2019-04-06T03:26:21.417Z,100.00
2019-04-06T03:28:47.650Z,100.00
2019-04-06T03:31:14.222Z,100.00
2019-04-06T03:33:40.477Z,100.00
2019-04-06T03:36:06.710Z,100.00
2019-04-06T03:38:32.966Z,100.00
2019-04-06T03:40:59.211Z,100.00
2019-04-06T03:43:25.627Z,100.00
2019-04-06T03:45:51.886Z,100.00
2019-04-06T03:48:18.117Z,100.00
2019-04-06T03:50:44.384Z,100.00
2019-04-06T03:53:10.615Z,100.00
2019-04-06T03:55:36.894Z,100.00
2019-04-06T03:58:03.148Z,100.00
2019-04-06T04:00:29.374Z,100.00
2019-04-06T04:02:55.604Z,100.00
2019-04-06T04:05:21.883Z,100.00
2019-04-06T04:07:48.143Z,100.00
2019-04-06T04:10:35.147Z,100.00
2019-04-06T04:13:01.382Z,100.00
2019-04-06T04:15:27.612Z,100.00
2019-04-06T04:17:53.863Z,100.00
2019-04-06T04:20:20.092Z,100.00
2019-04-06T04:22:46.353Z,100.00
2019-04-06T04:25:12.629Z,100.00
2019-04-06T04:30:15.230Z,100.00
2019-04-06T04:32:41.300Z,100.00
2019-04-06T04:35:07.645Z,100.00
2019-04-06T04:37:33.894Z,100.00
2019-04-06T04:40:00.135Z,100.00
2019-04-06T04:42:26.389Z,100.00
2019-04-06T04:44:52.628Z,100.00
2019-04-06T04:47:18.877Z,100.00
2019-04-06T04:49:45.136Z,100.00
2019-04-06T04:52:11.391Z,100.00
2019-04-06T04:54:37.633Z,100.00
2019-04-06T04:57:03.887Z,100.00
2019-04-06T04:59:30.146Z,99.94
2019-04-06T05:01:56.396Z,99.90
2019-04-06T05:04:22.642Z,99.86
2019-04-06T05:06:48.878Z,99.78
2019-04-06T05:09:15.124Z,99.60
2019-04-06T05:11:41.366Z,99.55
2019-04-06T05:14:47.126Z,99.58
2019-04-06T05:17:13.407Z,99.51
2019-04-06T05:19:39.647Z,99.50
2019-04-06T05:22:05.881Z,99.53
2019-04-06T05:24:32.137Z,99.52
2019-04-06T05:26:58.372Z,99.42
2019-04-06T05:29:24.683Z,99.44
2019-04-06T05:31:50.975Z,99.55
2019-04-06T05:34:17.229Z,99.58
2019-04-06T05:36:43.492Z,99.58
2019-04-06T05:39:09.735Z,99.57
2019-04-06T05:41:35.968Z,99.53
2019-04-06T05:44:02.425Z,99.50
2019-04-06T05:46:28.736Z,99.38
2019-04-06T05:48:55.015Z,99.27
2019-04-06T05:51:21.265Z,98.98
2019-04-06T05:53:47.562Z,98.74
2019-04-06T05:56:13.775Z,98.40
2019-04-06T05:58:41.275Z,98.19
2019-04-06T06:01:10.347Z,98.14
2019-04-06T06:03:40.136Z,98.03
2019-04-06T06:06:04.967Z,97.79
2019-04-06T06:08:31.251Z,97.43
2019-04-06T06:10:57.503Z,97.02
2019-04-06T06:13:23.948Z,96.65
2019-04-06T06:15:50.214Z,96.68
2019-04-06T06:18:25.840Z,96.62
2019-04-06T06:20:45.269Z,96.36
2019-04-06T06:23:11.629Z,96.37
2019-04-06T06:25:37.876Z,96.47
2019-04-06T06:28:13.745Z,96.41
2019-04-06T06:30:32.330Z,96.34
2019-04-06T06:32:58.566Z,95.75
2019-04-06T06:35:24.811Z,95.25
2019-04-06T06:37:51.054Z,95.24
2019-04-06T06:40:17.322Z,94.76
2019-04-06T06:42:43.557Z,94.78
2019-04-06T06:45:10.078Z,94.84
2019-04-06T06:47:36.408Z,95.34
2019-04-06T06:53:03.193Z,95.53
2019-04-06T06:55:29.457Z,95.00
2019-04-06T06:57:55.704Z,95.37
2019-04-06T07:00:21.948Z,95.61
2019-04-06T07:02:48.194Z,95.45
2019-04-06T07:05:14.435Z,95.00
2019-04-06T07:07:40.689Z,95.02
2019-04-06T07:10:07.023Z,94.73
2019-04-06T07:12:33.271Z,94.64
2019-04-06T07:14:59.509Z,94.29
2019-04-06T07:17:25.776Z,94.38
2019-04-06T07:19:52.007Z,94.38
2019-04-06T07:22:18.267Z,94.49
2019-04-06T07:24:44.504Z,94.56
2019-04-06T07:27:11.035Z,94.44
2019-04-06T07:29:37.279Z,94.08
2019-04-06T07:32:03.560Z,93.69
2019-04-06T07:34:29.793Z,93.74
2019-04-06T07:36:56.051Z,92.90
2019-04-06T07:39:22.308Z,92.30
2019-04-06T07:41:48.542Z,92.24
2019-04-06T07:44:14.781Z,92.21
2019-04-06T07:46:41.023Z,92.31
2019-04-06T07:49:09.317Z,92.40
2019-04-06T07:51:35.407Z,92.11
2019-04-06T07:54:01.654Z,91.64
2019-04-06T07:56:27.911Z,91.60
2019-04-06T07:58:54.151Z,90.45
2019-04-06T08:01:20.402Z,90.13
2019-04-06T08:03:46.865Z,90.35
2019-04-06T08:06:13.094Z,90.01
2019-04-06T08:08:39.341Z,89.99
2019-04-06T08:11:05.574Z,89.69
2019-04-06T08:13:31.839Z,88.88
2019-04-06T08:15:58.081Z,88.71
2019-04-06T08:18:24.338Z,88.28
2019-04-06T08:20:50.671Z,88.28
2019-04-06T08:23:16.915Z,87.74
2019-04-06T08:25:43.173Z,87.40
2019-04-06T08:28:09.421Z,87.45
2019-04-06T08:30:44.808Z,87.19
2019-04-06T08:33:04.103Z,87.13
2019-04-06T08:35:30.422Z,85.74
2019-04-06T08:37:56.649Z,84.74
2019-04-06T08:40:22.897Z,83.14
2019-04-06T08:42:49.132Z,81.29
2019-04-06T08:45:15.399Z,79.71
2019-04-06T08:47:41.690Z,79.03
2019-04-06T08:50:08.227Z,77.95
2019-04-06T08:52:34.422Z,76.76
2019-04-06T08:55:00.657Z,76.95
2019-04-06T08:57:26.895Z,73.78
2019-04-06T08:59:53.142Z,74.22
2019-04-06T09:02:19.375Z,75.72
2019-04-06T09:04:45.648Z,76.17
2019-04-06T09:07:11.879Z,76.08
2019-04-06T09:09:38.122Z,71.86
2019-04-06T09:12:04.375Z,74.18
2019-04-06T09:14:30.641Z,69.19
2019-04-06T09:16:56.876Z,65.25
2019-04-06T09:19:23.127Z,71.58
2019-04-06T09:21:49.511Z,67.58
2019-04-06T09:24:15.860Z,69.89
2019-04-06T09:26:42.307Z,63.73
2019-04-06T09:29:08.584Z,69.40
2019-04-06T09:31:35.167Z,62.76
2019-04-06T09:34:01.404Z,68.38
2019-04-06T09:36:27.672Z,66.37
2019-04-06T09:38:53.905Z,62.63
2019-04-06T09:41:20.163Z,64.76
2019-04-06T09:43:46.408Z,62.20
2019-04-06T09:46:32.509Z,64.88
2019-04-06T09:49:18.535Z,64.05
2019-04-06T09:52:04.844Z,63.64
2019-04-06T09:57:38.492Z,61.01
2019-04-06T10:00:46.052Z,59.60
2019-04-06T10:08:40.189Z,54.50
2019-04-06T10:19:25.449Z,54.32
2019-04-06T10:22:11.421Z,52.94
2019-04-06T10:24:57.512Z,56.90
2019-04-06T10:27:43.511Z,53.29
2019-04-06T10:33:22.417Z,53.41
2019-04-06T10:36:08.726Z,54.95
2019-04-06T10:38:54.797Z,55.00
2019-04-06T10:41:40.828Z,55.05
2019-04-06T10:44:26.815Z,52.92
2019-04-06T10:47:12.820Z,55.26
2019-04-06T10:52:33.265Z,53.88
2019-04-06T10:55:19.278Z,50.12
2019-04-06T10:58:05.282Z,51.02
2019-04-06T11:00:51.299Z,49.48
2019-04-06T11:03:37.299Z,53.15
2019-04-06T11:06:45.125Z,50.06
2019-04-06T11:09:31.184Z,51.08
2019-04-06T11:12:17.220Z,51.16
2019-04-06T11:15:03.468Z,46.87
2019-04-06T11:20:44.884Z,49.21
2019-04-06T11:23:30.881Z,48.00
2019-04-06T11:26:16.889Z,49.35
2019-04-06T11:31:50.757Z,47.95
2019-04-06T11:34:37.223Z,47.06
2019-04-06T11:37:23.249Z,46.94
2019-04-06T11:42:56.850Z,47.28
2019-04-06T11:45:42.856Z,49.27
2019-04-06T11:48:28.870Z,46.33
2019-04-06T11:54:12.229Z,46.24
2019-04-06T11:56:58.197Z,47.06
2019-04-06T11:59:44.202Z,45.24
2019-04-06T12:07:51.503Z,45.71
2019-04-06T12:10:37.512Z,47.41
2019-04-06T12:13:23.498Z,46.67
2019-04-06T12:21:17.417Z,45.84
2019-04-06T12:24:03.486Z,46.17
2019-04-06T12:26:49.643Z,45.98
2019-04-06T12:29:35.685Z,45.84
2019-04-06T12:32:21.669Z,45.89
2019-04-06T12:35:07.686Z,46.26
2019-04-06T12:37:53.672Z,45.09
2019-04-06T12:40:39.682Z,45.44
2019-04-06T12:43:25.670Z,45.55
2019-04-06T12:48:45.808Z,45.94
2019-04-06T12:51:31.854Z,45.65
2019-04-06T12:54:18.722Z,45.83
2019-04-06T12:57:07.567Z,44.28
2019-04-06T12:59:53.692Z,45.57
2019-04-06T13:02:39.697Z,44.78
2019-04-06T13:05:25.918Z,46.27
2019-04-06T13:08:24.827Z,46.33
2019-04-06T13:11:11.122Z,47.23
2019-04-06T13:13:57.446Z,46.74
2019-04-06T13:16:43.541Z,47.65
2019-04-06T13:19:29.711Z,47.04
2019-04-06T13:22:15.794Z,47.18
2019-04-06T13:25:02.917Z,47.35
2019-04-06T13:27:49.388Z,47.55
2019-04-06T13:33:23.350Z,47.32
2019-04-06T13:36:09.369Z,47.66
2019-04-06T13:41:29.448Z,48.80
2019-04-06T13:44:15.840Z,49.53
2019-04-06T13:47:01.859Z,49.41
2019-04-06T13:52:28.684Z,49.61
2019-04-06T13:55:14.760Z,50.51
2019-04-06T14:00:48.405Z,49.11
2019-04-06T14:03:34.721Z,50.25
2019-04-06T14:06:20.740Z,50.11
2019-04-06T14:09:06.774Z,49.43
2019-04-06T14:11:53.056Z,49.18
2019-04-06T14:14:39.055Z,49.39
2019-04-06T14:17:25.069Z,49.29
2019-04-06T14:22:58.666Z,50.10
2019-04-06T14:25:45.721Z,48.99
2019-04-06T14:31:29.934Z,49.35
2019-04-06T14:34:15.485Z,49.51
2019-04-06T14:39:35.509Z,49.50
2019-04-06T14:42:21.735Z,49.73
2019-04-06T14:47:55.333Z,50.07
2019-04-06T14:50:41.704Z,50.04
2019-04-06T14:53:27.954Z,50.39
2019-04-06T15:04:09.173Z,51.18
2019-04-06T15:06:55.290Z,50.70
2019-04-06T15:09:41.349Z,51.79
2019-04-06T15:12:27.783Z,52.04
2019-04-06T15:15:14.193Z,52.49
2019-04-06T15:18:00.167Z,51.92
2019-04-06T15:20:46.191Z,52.14
2019-04-06T15:23:32.197Z,52.07
2019-04-06T15:26:18.325Z,52.63
2019-04-06T15:29:04.408Z,53.02
2019-04-06T15:31:51.779Z,53.22
2019-04-06T15:37:12.367Z,53.38
2019-04-06T15:39:58.611Z,53.78
2019-04-06T15:42:44.575Z,54.30
2019-04-06T15:45:30.592Z,54.75
2019-04-06T15:48:16.595Z,55.92
2019-04-06T15:53:42.219Z,56.26
2019-04-06T15:56:28.293Z,58.97
2019-04-06T15:59:14.276Z,57.86
2019-04-06T16:02:02.954Z,57.92
2019-04-06T16:04:48.166Z,58.08
2019-04-06T16:07:34.242Z,57.98
2019-04-06T16:10:20.602Z,58.00
2019-04-06T16:13:06.615Z,58.94
2019-04-06T16:15:52.614Z,58.79
2019-04-06T16:18:38.631Z,58.98
2019-04-06T16:24:12.648Z,59.22
2019-04-06T16:29:32.995Z,60.28
2019-04-06T16:32:19.100Z,61.27
2019-04-06T16:35:05.379Z,60.81
2019-04-06T16:37:51.725Z,61.91
2019-04-06T16:40:37.706Z,61.98
2019-04-06T16:43:24.620Z,62.67
2019-04-06T16:48:58.379Z,62.56
2019-04-06T16:51:44.368Z,62.84
2019-04-06T16:59:38.277Z,63.78
2019-04-06T17:04:58.231Z,64.54
2019-04-06T17:10:32.186Z,65.36
2019-04-06T17:13:18.286Z,65.17
2019-04-06T17:16:04.276Z,65.51
2019-04-06T17:21:24.075Z,66.41
2019-04-06T17:24:29.876Z,68.27
2019-04-06T17:27:16.208Z,66.84
2019-04-06T17:30:02.238Z,67.35
2019-04-06T17:32:48.220Z,67.54
2019-04-06T17:35:34.672Z,68.34
2019-04-06T17:38:20.952Z,68.40
2019-04-06T17:43:41.573Z,69.35
2019-04-06T17:49:02.218Z,71.00
2019-04-06T17:51:48.522Z,69.89
2019-04-06T17:54:34.893Z,69.39
2019-04-06T18:00:00.659Z,71.06
2019-04-06T18:02:50.010Z,72.81
2019-04-06T18:05:34.587Z,70.88
2019-04-06T18:08:20.612Z,71.18
2019-04-06T18:11:06.603Z,71.56
2019-04-06T18:16:07.043Z,71.92
2019-04-06T18:18:35.230Z,71.46
2019-04-06T18:21:03.305Z,71.70
2019-04-06T18:23:30.047Z,72.08
2019-04-06T18:25:57.723Z,72.60
2019-04-06T18:28:24.059Z,72.57
2019-04-06T18:33:38.063Z,72.98
2019-04-06T18:36:04.352Z,73.04
2019-04-06T18:41:04.792Z,74.54
2019-04-06T18:43:32.660Z,75.40
2019-04-06T18:45:58.882Z,74.37
2019-04-06T18:48:25.137Z,75.48
2019-04-06T18:50:51.785Z,74.54
2019-04-06T18:53:20.488Z,74.53
2019-04-06T18:55:47.042Z,74.83
2019-04-06T18:58:15.378Z,75.77
2019-04-06T19:03:19.413Z,77.59
2019-04-06T19:05:45.671Z,77.25
2019-04-06T19:08:12.049Z,76.76
2019-04-06T19:13:18.273Z,77.23
2019-04-06T19:15:45.912Z,76.91
2019-04-06T19:18:12.167Z,78.62
2019-04-06T19:20:38.451Z,77.64
2019-04-06T19:23:04.695Z,79.52
2019-04-06T19:25:30.951Z,77.96
2019-04-06T19:27:57.192Z,80.58
2019-04-06T19:30:23.948Z,78.72
2019-04-06T19:32:50.597Z,79.71
2019-04-06T19:35:16.997Z,81.58
2019-04-06T19:37:43.281Z,79.02
2019-04-06T19:40:50.858Z,80.57
2019-04-06T19:43:18.546Z,79.76
2019-04-06T19:45:45.535Z,81.84
2019-04-06T19:48:12.473Z,81.19
2019-04-06T19:50:40.749Z,82.51
2019-04-06T19:53:08.520Z,81.01
2019-04-06T19:55:34.768Z,83.11
2019-04-06T19:58:01.310Z,82.38
2019-04-06T20:00:27.681Z,82.80
2019-04-06T20:02:54.016Z,83.86
2019-04-06T20:05:20.703Z,84.37
2019-04-06T20:07:46.936Z,83.03
2019-04-06T20:10:13.183Z,82.04
2019-04-06T20:12:39.433Z,81.45
2019-04-06T20:15:47.446Z,82.82
2019-04-06T20:18:13.841Z,83.09
2019-04-06T20:20:40.099Z,84.16
2019-04-06T20:23:06.384Z,85.69
2019-04-06T20:25:32.947Z,85.82
2019-04-06T20:28:00.823Z,85.09
2019-04-06T20:30:27.182Z,85.36
2019-04-06T20:35:47.595Z,84.42
2019-04-06T20:38:15.221Z,85.14
2019-04-06T20:40:43.553Z,84.53
2019-04-06T20:43:09.787Z,85.45
2019-04-06T20:45:36.038Z,84.41
2019-04-06T20:48:02.897Z,85.44
2019-04-06T20:50:30.874Z,84.61
2019-04-06T20:52:57.125Z,84.73
2019-04-06T20:55:23.400Z,85.11
2019-04-06T20:57:49.658Z,87.06
2019-04-06T21:00:16.546Z,86.97
2019-04-06T21:02:43.006Z,87.56
2019-04-06T21:05:09.292Z,87.61
2019-04-06T21:07:35.532Z,88.99
2019-04-06T21:10:23.352Z,88.38
2019-04-06T21:12:49.846Z,88.60
2019-04-06T21:15:20.596Z,88.72
2019-04-06T21:17:44.901Z,88.20
2019-04-06T21:20:13.076Z,88.17
2019-04-06T21:22:39.640Z,87.32
2019-04-06T21:25:08.400Z,88.37
2019-04-06T21:27:48.944Z,87.98
2019-04-06T21:30:15.227Z,87.87
2019-04-06T21:32:43.640Z,86.78
2019-04-06T21:35:11.650Z,86.18
2019-04-06T21:37:38.519Z,87.13
2019-04-06T21:40:06.732Z,87.38
2019-04-06T21:42:33.096Z,87.35
2019-04-06T21:44:59.476Z,87.04
2019-04-06T21:47:25.760Z,88.13
2019-04-06T21:49:52.288Z,88.30
2019-04-06T21:52:20.264Z,88.36
2019-04-06T21:54:48.863Z,87.60
2019-04-06T21:57:16.535Z,87.45
2019-04-06T21:59:42.790Z,87.35
2019-04-06T22:02:09.026Z,88.90
2019-04-06T22:04:35.299Z,88.87
2019-04-06T22:07:02.066Z,88.64
2019-04-06T22:09:28.810Z,88.90
2019-04-06T22:11:56.575Z,88.46
2019-04-06T22:14:23.015Z,89.46
2019-04-06T22:16:49.350Z,88.55
2019-04-06T22:19:15.745Z,88.18
2019-04-06T22:21:41.956Z,88.06
2019-04-06T22:24:27.967Z,88.92
2019-04-06T22:26:54.221Z,87.76
2019-04-06T22:29:20.741Z,89.17
2019-04-06T22:31:47.036Z,88.34
2019-04-06T22:34:13.552Z,87.50
2019-04-06T22:36:40.185Z,88.32
2019-04-06T22:41:55.852Z,88.01
2019-04-06T22:44:22.222Z,88.52
2019-04-06T22:46:48.591Z,87.74
2019-04-06T22:49:14.875Z,87.59
2019-04-06T22:51:41.139Z,87.73
2019-04-06T22:54:08.008Z,87.19
2019-04-06T22:56:35.545Z,87.37
2019-04-06T22:59:02.054Z,88.01
2019-04-06T23:09:11.016Z,87.75
2019-04-06T23:11:38.292Z,87.81
2019-04-06T23:16:44.764Z,88.05
2019-04-06T23:19:11.063Z,88.97
2019-04-06T23:21:37.286Z,89.55
2019-04-06T23:24:04.741Z,88.36
2019-04-06T23:26:31.680Z,88.80
2019-04-06T23:28:58.414Z,88.49
2019-04-06T23:33:56.108Z,87.97
2019-04-06T23:36:22.693Z,87.97
2019-04-06T23:38:50.999Z,88.81
2019-04-06T23:41:18.694Z,89.11
2019-04-06T23:43:45.398Z,89.37
2019-04-06T23:46:13.089Z,89.44
2019-04-06T23:48:40.260Z,89.11
2019-04-06T23:51:06.508Z,89.02
2019-04-06T23:53:32.872Z,89.19
2019-04-06T23:55:59.820Z,88.37
2019-04-06T23:58:27.282Z,89.11
